Time;durP1;ratioP1;P1;durP2;ratioP2;P2;SDS_P1;SDS_P2;PMS_P1;PMS_P2;Temp;Humidity;BMP_temperature;BMP_pressure;BME280_temperature;BME280_humidity;BME280_pressure;Samples;Min_cycle;Max_cycle;Signal;HPM_P1;HPM_P2
2022/07/15 00:00:13;;;;;;;2.90;1.40;;;16.40;1.00;;;;;;5070902;28;20260;-74
2022/07/15 00:02:39;;;;;;;9.83;1.67;;;16.40;1.00;;;;;;5073415;28;20430;-73
2022/07/15 00:05:07;;;;;;;3.50;2.00;;;16.40;1.00;;;;;;5068192;28;20403;-74
2022/07/15 00:07:35;;;;;;;2.73;1.40;;;16.30;1.00;;;;;;5064510;28;20183;-74
2022/07/15 00:10:13;;;;;;;3.80;1.33;;;16.30;1.00;;;;;;5062312;28;20423;-74
2022/07/15 00:12:43;;;;;;;2.47;1.60;;;16.30;1.00;;;;;;5070143;28;20750;-74
2022/07/15 00:15:09;;;;;;;6.53;2.20;;;16.20;1.00;;;;;;5068842;28;20512;-74
2022/07/15 00:17:35;;;;;;;5.13;1.90;;;16.10;1.00;;;;;;5071829;28;20474;-74
2022/07/15 00:20:01;;;;;;;2.47;1.70;;;16.10;1.00;;;;;;5072912;28;20418;-75
2022/07/15 00:22:28;;;;;;;4.43;2.20;;;16.10;1.00;;;;;;5072108;28;20177;-74
2022/07/15 00:24:54;;;;;;;2.07;1.70;;;16.00;1.00;;;;;;5058615;28;20438;-74
2022/07/15 00:27:22;;;;;;;2.20;1.70;;;15.90;1.00;;;;;;5067640;28;20416;-74
2022/07/15 00:29:58;;;;;;;4.40;1.73;;;15.90;1.00;;;;;;5073573;28;20184;-77
2022/07/15 00:32:24;;;;;;;4.27;1.90;;;15.90;1.00;;;;;;5081249;28;20434;-77
2022/07/15 00:34:51;;;;;;;1.90;1.40;;;15.80;1.00;;;;;;5077608;28;20478;-77
2022/07/15 00:37:22;;;;;;;6.03;1.93;;;15.80;1.00;;;;;;5070202;28;20196;-77
2022/07/15 00:39:58;;;;;;;3.97;1.43;;;15.70;1.00;;;;;;5076721;28;20997;-77
2022/07/15 00:42:46;;;;;;;5.00;2.33;;;15.70;1.00;;;;;;5072422;28;20743;-77
2022/07/15 00:45:28;;;;;;;2.80;1.60;;;15.60;1.00;;;;;;5070585;28;20415;-77
2022/07/15 00:48:22;;;;;;;4.90;1.83;;;15.50;1.00;;;;;;5072420;28;20478;-77
2022/07/15 00:50:48;;;;;;;1.57;1.47;;;15.40;1.00;;;;;;5069522;28;20437;-77
2022/07/15 00:53:19;;;;;;;8.97;1.70;;;15.30;1.00;;;;;;5076420;28;20400;-77
2022/07/15 00:55:56;;;;;;;1.60;1.50;;;15.20;1.00;;;;;;5074029;28;20409;-78
2022/07/15 00:58:31;;;;;;;4.23;1.60;;;15.20;1.00;;;;;;5075000;28;21044;-77
2022/07/15 01:00:58;;;;;;;5.50;1.80;;;15.10;1.00;;;;;;5074427;28;20771;-74
2022/07/15 01:03:27;;;;;;;6.70;2.13;;;15.10;1.00;;;;;;5065815;28;21002;-74
2022/07/15 01:05:58;;;;;;;3.70;1.93;;;15.00;1.00;;;;;;5060540;28;20397;-74
2022/07/15 01:08:28;;;;;;;2.20;1.90;;;15.00;1.00;;;;;;5075035;28;20428;-74
2022/07/15 01:10:54;;;;;;;2.70;1.60;;;15.00;1.00;;;;;;5081132;28;20421;-74
2022/07/15 01:13:21;;;;;;;4.73;1.60;;;14.90;1.00;;;;;;5070018;28;20854;-74
2022/07/15 01:15:48;;;;;;;5.50;2.10;;;14.80;1.00;;;;;;5069973;28;20425;-77
2022/07/15 01:18:16;;;;;;;5.30;1.83;;;14.70;1.00;;;;;;5069520;28;20527;-77
2022/07/15 01:20:43;;;;;;;11.10;2.60;;;14.70;1.00;;;;;;5059095;28;20490;-78
2022/07/15 01:23:09;;;;;;;2.83;1.97;;;14.60;1.00;;;;;;5056210;28;20460;-77
2022/07/15 01:25:58;;;;;;;2.13;1.90;;;14.60;1.00;;;;;;5068926;28;20380;-77
2022/07/15 01:28:23;;;;;;;2.20;1.70;;;14.60;1.00;;;;;;5064186;28;20193;-77
2022/07/15 01:30:49;;;;;;;3.37;1.50;;;14.60;1.00;;;;;;5074713;28;20391;-77
2022/07/15 01:33:16;;;;;;;2.90;2.17;;;14.50;1.00;;;;;;5072611;28;20190;-77
2022/07/15 01:35:55;;;;;;;1.97;1.80;;;14.40;1.00;;;;;;5071701;28;20187;-77
2022/07/15 01:38:22;;;;;;;5.70;2.10;;;14.40;1.00;;;;;;5067209;28;20483;-77
2022/07/15 01:40:58;;;;;;;4.30;1.93;;;14.40;1.00;;;;;;5062661;28;20447;-77
2022/07/15 01:43:51;;;;;;;2.80;1.70;;;14.30;1.00;;;;;;5075601;28;20906;-77
2022/07/15 01:46:22;;;;;;;1.70;1.53;;;14.30;1.00;;;;;;5065946;28;20375;-77
2022/07/15 01:51:36;;;;;;;2.30;1.83;;;14.10;1.00;;;;;;5069295;28;20534;-77
2022/07/15 01:54:04;;;;;;;5.47;2.03;;;14.10;1.00;;;;;;5075420;28;20971;-77
2022/07/15 01:56:36;;;;;;;4.40;1.90;;;14.00;1.00;;;;;;5075024;28;20248;-77
2022/07/15 01:59:17;;;;;;;4.50;2.10;;;13.90;1.00;;;;;;5072216;28;20403;-77
2022/07/15 02:01:59;;;;;;;4.77;1.80;;;13.90;1.00;;;;;;5072334;28;20397;-74
2022/07/15 02:04:28;;;;;;;3.30;1.60;;;13.90;1.00;;;;;;5073053;28;20863;-75
2022/07/15 02:06:58;;;;;;;2.70;1.90;;;13.90;1.00;;;;;;5060105;28;20894;-74
2022/07/15 02:09:28;;;;;;;2.57;1.70;;;13.70;1.00;;;;;;5075500;28;20545;-74
2022/07/15 02:11:55;;;;;;;3.57;1.90;;;13.70;1.00;;;;;;5087863;28;20954;-74
2022/07/15 02:14:21;;;;;;;4.97;1.90;;;13.60;1.00;;;;;;5060306;28;20437;-74
2022/07/15 02:16:58;;;;;;;2.53;2.33;;;13.50;1.00;;;;;;5063202;28;20453;-78
2022/07/15 02:19:34;;;;;;;3.90;1.73;;;13.50;1.00;;;;;;5070689;28;20411;-77
2022/07/15 02:22:00;;;;;;;5.40;2.03;;;13.50;1.00;;;;;;5067092;28;20392;-77
2022/07/15 02:24:26;;;;;;;5.10;1.50;;;13.50;1.00;;;;;;5061731;28;20390;-78
2022/07/15 02:26:52;;;;;;;2.13;1.90;;;13.50;1.00;;;;;;5061136;28;20417;-77
2022/07/15 02:29:28;;;;;;;1.70;1.60;;;13.60;1.00;;;;;;5068170;28;20250;-77
2022/07/15 02:32:04;;;;;;;7.13;2.97;;;13.50;1.00;;;;;;5058468;28;20425;-74
2022/07/15 02:34:34;;;;;;;1.60;1.50;;;13.40;1.00;;;;;;5053555;28;20402;-74
2022/07/15 02:37:16;;;;;;;4.03;1.80;;;13.30;1.00;;;;;;5068069;28;20603;-74
2022/07/15 02:39:42;;;;;;;8.40;1.83;;;13.40;1.00;;;;;;5054398;28;20438;-74
2022/07/15 02:42:07;;;;;;;3.20;1.90;;;13.40;1.00;;;;;;5071789;28;20448;-74
2022/07/15 02:44:34;;;;;;;4.77;2.07;;;13.40;1.00;;;;;;5056366;28;20183;-74
2022/07/15 02:47:00;;;;;;;8.63;2.83;;;13.50;1.00;;;;;;5074650;28;20521;-74
2022/07/15 02:49:25;;;;;;;5.00;2.07;;;13.50;1.00;;;;;;5072209;28;20512;-74
2022/07/15 02:51:51;;;;;;;5.00;2.33;;;13.40;1.00;;;;;;5070982;28;20178;-74
2022/07/15 02:54:28;;;;;;;1.70;1.60;;;13.40;1.00;;;;;;5074461;28;20175;-74
2022/07/15 02:56:58;;;;;;;1.73;1.63;;;13.30;1.00;;;;;;5073252;28;20613;-75
2022/07/15 02:59:28;;;;;;;5.40;1.90;;;13.40;1.00;;;;;;5061898;28;20411;-74
2022/07/15 03:01:54;;;;;;;2.93;2.33;;;13.40;1.00;;;;;;5059558;28;20414;-74
2022/07/15 03:04:19;;;;;;;4.93;2.00;;;13.50;1.00;;;;;;5074407;28;20499;-74
2022/07/15 03:06:45;;;;;;;6.60;1.80;;;13.40;1.00;;;;;;5069189;28;20176;-74
2022/07/15 03:09:16;;;;;;;2.00;1.90;;;13.50;1.00;;;;;;5063041;28;20274;-74
2022/07/15 03:11:46;;;;;;;1.70;1.60;;;13.40;1.00;;;;;;5074062;28;20185;-74
2022/07/15 03:14:16;;;;;;;2.97;2.13;;;13.50;1.00;;;;;;5074549;28;20411;-74
2022/07/15 03:17:10;;;;;;;2.40;1.80;;;13.50;1.00;;;;;;5061355;28;20450;-78
2022/07/15 03:19:40;;;;;;;3.27;1.90;;;13.50;1.00;;;;;;5067130;28;20389;-77
2022/07/15 03:22:06;;;;;;;4.07;2.40;;;13.40;1.00;;;;;;5065600;28;20408;-78
2022/07/15 03:25:04;;;;;;;5.23;2.63;;;13.40;1.00;;;;;;5060325;28;20415;-78
2022/07/15 03:27:52;;;;;;;2.73;2.20;;;13.40;1.00;;;;;;5067817;28;20396;-78
2022/07/15 03:30:22;;;;;;;2.47;2.27;;;13.30;1.00;;;;;;5065774;28;20401;-79
2022/07/15 03:32:52;;;;;;;2.50;1.90;;;13.20;1.00;;;;;;5073878;28;20416;-78
2022/07/15 03:35:34;;;;;;;6.73;2.47;;;13.20;1.00;;;;;;5072383;28;20396;-78
2022/07/15 03:38:10;;;;;;;11.60;2.40;;;13.30;1.00;;;;;;5062248;28;20991;-78
2022/07/15 03:40:40;;;;;;;5.83;2.30;;;13.30;1.00;;;;;;5073667;28;20432;-78
2022/07/15 03:43:16;;;;;;;2.10;2.00;;;13.30;1.00;;;;;;5062707;28;20889;-78
2022/07/15 03:45:42;;;;;;;9.00;2.20;;;13.20;1.00;;;;;;5072771;28;20843;-78
2022/07/15 03:48:28;;;;;;;4.80;2.13;;;13.30;1.00;;;;;;5073686;28;20388;-78
2022/07/15 03:50:58;;;;;;;6.17;1.90;;;13.20;1.00;;;;;;5068130;28;20236;-79
2022/07/15 03:53:28;;;;;;;4.80;2.17;;;13.20;1.00;;;;;;5060132;28;20455;-78
2022/07/15 03:56:34;;;;;;;3.00;2.17;;;13.20;1.00;;;;;;5063619;28;20424;-78
2022/07/15 03:59:06;;;;;;;4.90;2.30;;;13.20;1.00;;;;;;5061952;28;20423;-79
2022/07/15 04:01:52;;;;;;;1.80;1.67;;;13.20;1.00;;;;;;5060251;28;20879;-78
2022/07/15 04:04:18;;;;;;;5.40;2.20;;;13.20;1.00;;;;;;5061416;28;20459;-78
2022/07/15 04:06:44;;;;;;;7.60;2.03;;;13.20;1.00;;;;;;5066676;28;20402;-78
2022/07/15 04:09:16;;;;;;;10.87;2.57;;;13.20;1.00;;;;;;5061349;28;20406;-78
2022/07/15 04:11:52;;;;;;;3.50;2.43;;;13.30;1.00;;;;;;5064255;28;20417;-78
2022/07/15 04:14:22;;;;;;;7.23;2.60;;;13.30;1.00;;;;;;5076775;28;20434;-78
2022/07/15 04:16:58;;;;;;;4.80;2.50;;;13.30;1.00;;;;;;5069125;28;20517;-78
2022/07/15 04:19:46;;;;;;;6.03;2.23;;;13.30;1.00;;;;;;5073958;28;20436;-78
2022/07/15 04:22:11;;;;;;;2.60;1.97;;;13.40;1.00;;;;;;5069911;28;20405;-77
2022/07/15 04:24:40;;;;;;;2.90;2.37;;;13.50;1.00;;;;;;5071558;28;20783;-78
2022/07/15 04:27:10;;;;;;;5.50;2.27;;;13.60;1.00;;;;;;5060813;28;20199;-78
2022/07/15 04:29:52;;;;;;;5.53;2.23;;;13.70;1.00;;;;;;5057116;28;20907;-82
2022/07/15 04:36:04;;;;;;;3.47;1.83;;;13.90;1.00;;;;;;5065491;28;20393;-83
2022/07/15 04:38:34;;;;;;;3.50;2.20;;;14.10;1.00;;;;;;5073104;28;20535;-82
2022/07/15 04:44:34;;;;;;;6.33;2.13;;;14.40;1.00;;;;;;5068610;28;20961;-82
2022/07/15 04:47:04;;;;;;;12.70;2.50;;;14.60;1.00;;;;;;5057106;28;20418;-82
2022/07/15 04:52:47;;;;;;;7.60;2.33;;;14.70;1.00;;;;;;5077139;28;20419;-82
2022/07/15 04:55:34;;;;;;;3.10;1.73;;;14.90;1.00;;;;;;5076817;28;20395;-82
2022/07/15 04:58:00;;;;;;;6.57;2.00;;;14.90;1.00;;;;;;5060301;28;20455;-82
2022/07/15 05:03:47;;;;;;;3.03;1.70;;;15.10;1.00;;;;;;5068284;28;20396;-82
2022/07/15 05:09:35;;;;;;;2.40;1.50;;;15.30;1.00;;;;;;5062825;28;20182;-82
2022/07/15 05:12:16;;;;;;;1.50;1.33;;;15.60;1.00;;;;;;5067970;28;20411;-82
2022/07/15 05:14:46;;;;;;;3.17;1.53;;;15.80;1.00;;;;;;5069471;28;20176;-82
2022/07/15 05:17:34;;;;;;;8.53;1.60;;;16.20;1.00;;;;;;5068063;28;21093;-81
2022/07/15 05:20:00;;;;;;;1.77;1.30;;;16.30;1.00;;;;;;5062546;28;20411;-81
2022/07/15 05:26:05;;;;;;;6.17;1.30;;;16.80;1.00;;;;;;5069572;28;20195;-82
2022/07/15 05:31:54;;;;;;;2.60;1.30;;;17.30;1.00;;;;;;5074422;28;20419;-81
2022/07/15 05:34:22;;;;;;;5.40;1.50;;;17.50;1.00;;;;;;5069897;28;20386;-83
2022/07/15 05:36:48;;;;;;;9.27;1.90;;;17.60;1.00;;;;;;5073608;28;20434;-82
2022/07/15 05:39:14;;;;;;;2.93;1.27;;;17.80;1.00;;;;;;5062232;28;20389;-82
2022/07/15 05:41:40;;;;;;;7.17;1.50;;;18.00;1.00;;;;;;5068153;28;20503;-83
2022/07/15 05:44:40;;;;;;;15.63;2.00;;;18.30;1.00;;;;;;5076166;28;20475;-83
2022/07/15 05:47:28;;;;;;;3.57;1.57;;;18.60;1.00;;;;;;5062700;28;20273;-84
2022/07/15 05:53:58;;;;;;;7.03;1.70;;;19.10;1.00;;;;;;5070938;28;20939;-89
2022/07/15 05:56:46;;;;;;;3.37;1.43;;;19.20;1.00;;;;;;5061920;28;20445;-79
2022/07/15 05:59:22;;;;;;;7.60;1.27;;;19.50;1.00;;;;;;5065573;28;20901;-78
2022/07/15 06:01:48;;;;;;;1.70;1.30;;;19.60;1.00;;;;;;5073328;28;20405;-78
2022/07/15 06:04:13;;;;;;;4.30;1.67;;;19.70;1.00;;;;;;5064459;28;20425;-78
2022/07/15 06:07:10;;;;;;;6.57;1.60;;;19.80;1.00;;;;;;5059677;28;20185;-79
2022/07/15 06:09:37;;;;;;;2.47;1.20;;;19.90;1.00;;;;;;5072503;28;20194;-77
2022/07/15 06:12:03;;;;;;;2.07;1.30;;;19.90;1.00;;;;;;5073990;28;20757;-78
2022/07/15 06:14:34;;;;;;;3.70;1.10;;;20.00;1.00;;;;;;5058473;28;20464;-78
2022/07/15 06:17:00;;;;;;;1.50;1.20;;;20.10;1.00;;;;;;5055006;28;20520;-78
2022/07/15 06:19:27;;;;;;;2.80;1.60;;;20.20;1.00;;;;;;5069843;28;20917;-78
2022/07/15 06:21:53;;;;;;;4.00;1.23;;;20.30;1.00;;;;;;5073845;28;20183;-78
2022/07/15 06:24:22;;;;;;;3.20;1.00;;;20.50;1.00;;;;;;5061316;28;20406;-78
2022/07/15 06:26:58;;;;;;;3.60;1.17;;;20.50;1.00;;;;;;5074892;28;20630;-78
2022/07/15 06:29:46;;;;;;;4.00;1.60;;;20.50;1.00;;;;;;5064727;28;20425;-78
2022/07/15 06:32:17;;;;;;;4.20;1.30;;;20.50;1.00;;;;;;5067306;28;20500;-78
2022/07/15 06:34:58;;;;;;;3.10;1.40;;;20.60;1.00;;;;;;5065142;28;20414;-78
2022/07/15 06:37:28;;;;;;;2.40;1.60;;;20.60;1.00;;;;;;5059061;28;20469;-77
2022/07/15 06:40:05;;;;;;;3.03;1.40;;;20.80;1.00;;;;;;5063886;28;21051;-78
2022/07/15 06:42:40;;;;;;;4.30;1.30;;;21.00;1.00;;;;;;5060007;28;20471;-77
2022/07/15 06:45:28;;;;;;;6.70;1.33;;;21.20;1.00;;;;;;5073983;28;20408;-77
2022/07/15 06:47:59;;;;;;;5.90;1.20;;;21.50;1.00;;;;;;5062366;28;20447;-77
2022/07/15 06:50:34;;;;;;;1.90;1.37;;;21.70;1.00;;;;;;5061087;28;20420;-77
2022/07/15 06:53:00;;;;;;;5.83;1.40;;;21.80;1.00;;;;;;5052545;28;20517;-77
2022/07/15 06:55:34;;;;;;;3.57;1.00;;;21.70;1.00;;;;;;5074205;28;20506;-78
2022/07/15 06:58:10;;;;;;;4.40;1.30;;;21.70;1.00;;;;;;5063096;28;20204;-77
2022/07/15 07:00:40;;;;;;;5.93;1.70;;;21.70;1.00;;;;;;5059223;28;20896;-77
2022/07/15 07:03:10;;;;;;;5.50;1.20;;;21.60;1.00;;;;;;5070373;28;20439;-77
2022/07/15 07:05:36;;;;;;;1.67;1.30;;;21.70;1.00;;;;;;5070047;28;20437;-77
2022/07/15 07:08:16;;;;;;;2.40;1.27;;;21.90;1.00;;;;;;5072060;28;20473;-77
2022/07/15 07:10:42;;;;;;;5.03;1.30;;;22.20;1.00;;;;;;5052695;28;20166;-77
2022/07/15 07:13:09;;;;;;;7.53;1.20;;;22.50;1.00;;;;;;5070899;28;20440;-78
2022/07/15 07:15:36;;;;;;;5.37;1.40;;;22.60;1.00;;;;;;5072321;28;21103;-78
2022/07/15 07:18:04;;;;;;;2.53;1.47;;;22.50;1.00;;;;;;5058366;28;20534;-77
2022/07/15 07:20:30;;;;;;;1.47;1.20;;;22.30;1.00;;;;;;5070594;28;20428;-75
2022/07/15 07:22:57;;;;;;;2.80;1.30;;;22.30;1.00;;;;;;5072413;28;20367;-77
2022/07/15 07:25:41;;;;;;;10.20;1.57;;;22.30;1.00;;;;;;5053837;28;20406;-78
2022/07/15 07:28:12;;;;;;;4.63;1.50;;;22.30;1.00;;;;;;5067122;28;20946;-76
2022/07/15 07:30:40;;;;;;;6.43;1.57;;;22.40;1.00;;;;;;5065225;28;20436;-76
2022/07/15 07:33:10;;;;;;;7.23;1.13;;;22.40;1.00;;;;;;5070712;28;20470;-76
2022/07/15 07:35:37;;;;;;;4.30;1.30;;;22.60;1.00;;;;;;5073909;28;20411;-75
2022/07/15 07:38:02;;;;;;;1.60;1.27;;;22.80;1.00;;;;;;5072284;28;20945;-74
2022/07/15 07:40:34;;;;;;;7.03;1.30;;;23.10;1.00;;;;;;5073588;28;20190;-75
2022/07/15 07:43:00;;;;;;;3.90;1.67;;;23.20;1.00;;;;;;5071922;28;20254;-74
2022/07/15 07:45:28;;;;;;;4.77;1.17;;;23.30;1.00;;;;;;5061641;28;20506;-74
2022/07/15 07:47:55;;;;;;;5.57;1.40;;;23.40;1.00;;;;;;5071611;28;20216;-75
2022/07/15 07:50:22;;;;;;;5.07;1.37;;;23.60;1.00;;;;;;5073765;28;20450;-75
2022/07/15 07:52:53;;;;;;;4.13;1.30;;;23.60;1.00;;;;;;5059673;28;20818;-74
2022/07/15 07:55:19;;;;;;;5.43;1.40;;;23.60;1.00;;;;;;5067230;28;20463;-74
2022/07/15 07:57:49;;;;;;;13.63;1.80;;;23.60;1.00;;;;;;5071302;28;20483;-74
2022/07/15 08:00:16;;;;;;;8.40;1.73;;;23.60;1.00;;;;;;5081502;28;20584;-75
2022/07/15 08:02:47;;;;;;;5.33;1.60;;;23.50;1.00;;;;;;5065587;28;20416;-74
2022/07/15 08:05:17;;;;;;;3.67;1.63;;;23.40;1.00;;;;;;5068491;28;20781;-74
2022/07/15 08:07:42;;;;;;;3.63;1.40;;;24.90;1.00;;;;;;5068620;28;20425;-75
2022/07/15 08:10:10;;;;;;;1.93;1.63;;;23.20;1.00;;;;;;5072954;28;20436;-74
2022/07/15 08:12:37;;;;;;;8.87;1.80;;;23.20;1.00;;;;;;5073436;28;20216;-75
2022/07/15 08:15:07;;;;;;;3.27;1.47;;;23.00;1.00;;;;;;5080087;28;20434;-75
2022/07/15 08:17:32;;;;;;;5.67;1.43;;;22.90;1.00;;;;;;5073248;28;20454;-75
2022/07/15 08:19:58;;;;;;;4.63;1.63;;;22.90;1.00;;;;;;5071516;28;20449;-74
2022/07/15 08:22:28;;;;;;;6.67;1.80;;;23.00;1.00;;;;;;5066540;28;20192;-74
2022/07/15 08:24:58;;;;;;;5.13;1.57;;;23.20;1.00;;;;;;5072980;28;20168;-74
2022/07/15 08:27:24;;;;;;;6.00;1.50;;;23.40;1.00;;;;;;5073202;28;20415;-75
2022/07/15 08:29:53;;;;;;;4.80;2.20;;;23.60;1.00;;;;;;5063749;28;20938;-75
2022/07/15 08:32:22;;;;;;;6.33;1.57;;;23.80;1.00;;;;;;5072992;28;20173;-75
2022/07/15 08:34:48;;;;;;;4.70;2.07;;;23.70;1.00;;;;;;5072774;28;20423;-74
2022/07/15 08:37:14;;;;;;;3.23;1.90;;;23.70;1.00;;;;;;5072033;28;20856;-74
2022/07/15 08:39:40;;;;;;;2.17;1.70;;;23.80;1.00;;;;;;5072888;28;20431;-74
2022/07/15 08:42:06;;;;;;;2.73;1.70;;;24.20;1.00;;;;;;5062376;28;20415;-75
2022/07/15 08:44:34;;;;;;;4.23;1.90;;;24.40;1.00;;;;;;5070270;28;20432;-74
2022/07/15 08:47:04;;;;;;;10.97;2.50;;;24.60;1.00;;;;;;5072953;28;20798;-75
2022/07/15 08:49:32;;;;;;;2.30;1.83;;;24.70;1.00;;;;;;5064272;28;20424;-75
2022/07/15 08:52:00;;;;;;;4.30;2.20;;;24.90;1.00;;;;;;5078891;28;20422;-74
2022/07/15 08:54:52;;;;;;;3.73;1.97;;;25.20;1.00;;;;;;5057458;28;20436;-84
2022/07/15 08:57:34;;;;;;;5.60;2.13;;;25.40;1.00;;;;;;5064497;28;20454;-82
2022/07/15 09:00:10;;;;;;;8.70;2.20;;;25.80;1.00;;;;;;5086260;28;20409;-82
2022/07/15 09:02:40;;;;;;;6.83;2.40;;;26.10;1.00;;;;;;5077988;28;20425;-83
2022/07/15 09:05:46;;;;;;;4.57;2.20;;;26.20;1.00;;;;;;5075650;28;20413;-83
2022/07/15 09:08:22;;;;;;;3.97;1.70;;;26.30;1.00;;;;;;5075118;28;20431;-81
2022/07/15 09:11:00;;;;;;;3.63;2.17;;;26.60;1.00;;;;;;5074933;28;20548;-80
2022/07/15 09:13:46;;;;;;;3.57;2.00;;;26.70;1.00;;;;;;5068797;28;20520;-80
2022/07/15 09:16:40;;;;;;;2.30;1.80;;;26.70;1.00;;;;;;5069677;28;20958;-80
2022/07/15 09:19:05;;;;;;;3.00;1.77;;;26.50;1.00;;;;;;5063709;28;20799;-80
2022/07/15 09:22:01;;;;;;;3.83;2.27;;;26.20;1.00;;;;;;5059385;28;20417;-81
2022/07/15 09:25:16;;;;;;;3.00;1.80;;;26.00;1.00;;;;;;5056478;28;20182;-81
2022/07/15 09:28:34;;;;;;;4.00;2.23;;;25.80;1.00;;;;;;5074590;28;20435;-81
2022/07/15 09:41:52;;;;;;;4.13;2.40;;;25.80;1.00;;;;;;5076609;28;20395;-89
2022/07/15 09:44:22;;;;;;;5.77;2.53;;;26.00;1.00;;;;;;5062285;28;20431;-79
2022/07/15 09:47:18;;;;;;;3.33;2.10;;;26.10;1.00;;;;;;5061916;28;20509;-78
2022/07/15 09:49:44;;;;;;;5.07;2.60;;;26.00;1.00;;;;;;5075548;28;20423;-78
2022/07/15 09:52:44;;;;;;;7.40;2.70;;;26.00;1.00;;;;;;5068907;28;20473;-81
2022/07/15 09:55:16;;;;;;;4.47;2.70;;;26.10;1.00;;;;;;5060580;28;20434;-81
2022/07/15 09:57:42;;;;;;;2.60;2.40;;;26.20;1.00;;;;;;5070734;28;20449;-81
2022/07/15 10:00:09;;;;;;;5.27;2.40;;;25.90;1.00;;;;;;5067716;28;20759;-81
2022/07/15 10:02:35;;;;;;;7.13;2.50;;;25.90;1.00;;;;;;5062851;28;20422;-81
2022/07/15 10:05:01;;;;;;;3.27;2.40;;;26.00;1.00;;;;;;5059646;28;20416;-81
2022/07/15 10:07:27;;;;;;;5.37;2.80;;;26.20;1.00;;;;;;5075704;28;20163;-80
2022/07/15 10:10:00;;;;;;;3.60;2.77;;;26.30;1.00;;;;;;5074206;28;20553;-81
2022/07/15 10:13:05;;;;;;;5.63;2.67;;;26.60;1.00;;;;;;5074530;28;20438;-80
2022/07/15 10:16:19;;;;;;;2.63;2.23;;;26.70;1.00;;;;;;5071992;28;20928;-80
2022/07/15 10:19:02;;;;;;;4.80;2.53;;;26.90;1.00;;;;;;4993480;28;21058;-81
2022/07/15 10:22:10;;;;;;;8.83;2.60;;;27.00;1.00;;;;;;4993907;28;20418;-79
2022/07/15 10:24:56;;;;;;;8.83;2.43;;;26.50;1.00;;;;;;5010462;28;20455;-80
2022/07/15 10:27:59;;;;;;;4.80;2.53;;;26.70;1.00;;;;;;4996589;28;20427;-80
2022/07/15 10:30:28;;;;;;;3.57;2.50;;;26.90;1.00;;;;;;4996603;28;20417;-82
2022/07/15 10:33:40;;;;;;;4.70;2.80;;;26.90;1.00;;;;;;5010114;28;20840;-80
2022/07/15 10:36:16;;;;;;;2.80;2.37;;;27.00;1.00;;;;;;4998448;28;20430;-81
2022/07/15 10:39:03;;;;;;;7.37;3.10;;;26.90;1.00;;;;;;5002829;28;20457;-78
2022/07/15 10:41:56;;;;;;;4.50;2.50;;;26.80;1.00;;;;;;5012726;28;20471;-79
2022/07/15 10:48:25;;;;;;;4.43;3.10;;;26.30;1.00;;;;;;5020365;28;20470;-79
2022/07/15 10:50:52;;;;;;;5.57;3.10;;;26.50;1.00;;;;;;5007998;28;20432;-78
2022/07/15 10:53:58;;;;;;;8.30;3.53;;;26.70;1.00;;;;;;5003883;28;20413;-79
2022/07/15 10:56:45;;;;;;;3.17;2.33;;;26.60;1.00;;;;;;5067214;28;20502;-79
2022/07/15 10:59:47;;;;;;;5.23;2.40;;;26.30;1.00;;;;;;5055234;28;20421;-79
2022/07/15 11:02:52;;;;;;;4.47;2.73;;;26.00;1.00;;;;;;5066526;28;20886;-79
2022/07/15 11:05:52;;;;;;;2.90;2.50;;;26.10;1.00;;;;;;5060839;28;20409;-79
2022/07/15 11:08:55;;;;;;;5.23;2.50;;;26.20;1.00;;;;;;5066848;28;20752;-80
2022/07/15 11:11:42;;;;;;;5.67;2.60;;;26.10;1.00;;;;;;5030626;28;20429;-80
2022/07/15 11:14:43;;;;;;;5.33;2.33;;;26.00;1.00;;;;;;5011860;28;20472;-81
2022/07/15 11:17:37;;;;;;;5.83;2.73;;;25.90;1.00;;;;;;5006169;28;20470;-82
2022/07/15 11:20:14;;;;;;;7.13;2.37;;;26.00;1.00;;;;;;5005118;28;21057;-81
2022/07/15 11:22:43;;;;;;;3.73;2.57;;;26.20;1.00;;;;;;4992759;28;20442;-80
2022/07/15 11:25:35;;;;;;;6.57;2.33;;;26.30;1.00;;;;;;4988045;28;20441;-81
2022/07/15 11:28:40;;;;;;;5.80;2.60;;;26.40;1.00;;;;;;5010125;28;20420;-80
2022/07/15 11:31:10;;;;;;;4.60;2.30;;;26.40;1.00;;;;;;5020183;28;20441;-80
2022/07/15 11:34:16;;;;;;;4.47;2.63;;;26.20;1.00;;;;;;5003928;28;20422;-80
2022/07/15 11:37:18;;;;;;;2.30;2.20;;;26.00;1.00;;;;;;4995080;28;20463;-80
2022/07/15 11:40:10;;;;;;;5.83;2.00;;;26.20;1.00;;;;;;4991399;28;20455;-79
2022/07/15 11:45:52;;;;;;;4.37;2.03;;;26.60;1.00;;;;;;5016576;28;20541;-79
2022/07/15 11:48:18;;;;;;;3.20;2.10;;;26.90;1.00;;;;;;5020209;28;20417;-80
2022/07/15 11:50:55;;;;;;;4.53;2.17;;;27.00;1.00;;;;;;5023446;28;20559;-78
2022/07/15 11:53:22;;;;;;;5.50;2.10;;;27.00;1.00;;;;;;5031998;28;20187;-78
2022/07/15 11:55:48;;;;;;;6.63;2.10;;;27.00;1.00;;;;;;5030974;28;20514;-79
2022/07/15 11:58:47;;;;;;;4.90;2.77;;;27.00;1.00;;;;;;5014858;28;20630;-79
2022/07/15 12:01:22;;;;;;;5.07;2.07;;;27.30;1.00;;;;;;4972951;28;20197;-79
2022/07/15 12:03:54;;;;;;;5.70;2.10;;;27.30;1.00;;;;;;4972601;28;20484;-79
2022/07/15 12:06:40;;;;;;;3.00;2.13;;;27.50;1.00;;;;;;4972532;28;20498;-78
2022/07/15 12:09:10;;;;;;;3.87;2.00;;;27.70;1.00;;;;;;4972692;28;20427;-80
2022/07/15 12:11:40;;;;;;;2.43;2.20;;;27.80;1.00;;;;;;4972560;28;20437;-80
2022/07/15 12:14:17;;;;;;;5.50;2.20;;;28.20;1.00;;;;;;4972158;28;20843;-81
2022/07/15 12:16:53;;;;;;;2.07;1.87;;;28.40;1.00;;;;;;4972598;28;20925;-80
2022/07/15 12:19:29;;;;;;;4.17;1.97;;;28.70;1.00;;;;;;4963944;28;21103;-80
2022/07/15 12:22:16;;;;;;;2.80;1.80;;;28.90;1.00;;;;;;4992003;28;20427;-80
2022/07/15 12:25:20;;;;;;;6.07;2.20;;;28.90;1.00;;;;;;4980322;28;20421;-79
2022/07/15 12:31:30;;;;;;;8.47;2.27;;;28.40;1.00;;;;;;4972275;28;20403;-78
2022/07/15 12:34:05;;;;;;;2.37;1.77;;;28.40;1.00;;;;;;4981940;28;20480;-79
2022/07/15 12:36:35;;;;;;;4.37;2.00;;;28.60;1.00;;;;;;4982419;28;20503;-78
2022/07/15 12:39:14;;;;;;;4.87;2.40;;;28.70;1.00;;;;;;5046539;28;20505;-78
2022/07/15 12:41:41;;;;;;;3.80;1.87;;;28.50;1.00;;;;;;5075296;28;20411;-78
2022/07/15 12:44:11;;;;;;;3.77;2.23;;;28.50;1.00;;;;;;5064706;28;20501;-79
2022/07/15 12:46:56;;;;;;;3.43;2.10;;;28.70;1.00;;;;;;5070110;28;20495;-78
2022/07/15 12:50:16;;;;;;;4.00;2.10;;;29.00;1.00;;;;;;5087721;28;20493;-78
2022/07/15 12:52:44;;;;;;;2.63;1.90;;;29.30;1.00;;;;;;5059259;28;20424;-78
2022/07/15 12:55:20;;;;;;;4.73;2.20;;;29.80;1.00;;;;;;5067385;28;20420;-78
2022/07/15 12:58:26;;;;;;;6.17;1.70;;;30.00;1.00;;;;;;5073673;28;20970;-79
2022/07/15 13:00:52;;;;;;;2.00;1.90;;;30.30;1.00;;;;;;5072787;28;20429;-79
2022/07/15 13:03:28;;;;;;;4.10;2.00;;;30.30;1.00;;;;;;5056571;28;20447;-79
2022/07/15 13:06:05;;;;;;;8.53;2.07;;;30.20;1.00;;;;;;5070636;28;20233;-79
2022/07/15 13:08:34;;;;;;;3.07;1.90;;;30.10;1.00;;;;;;5076314;28;20435;-78
2022/07/15 13:11:07;;;;;;;4.03;1.70;;;29.70;1.00;;;;;;5075768;28;20976;-78
2022/07/15 13:13:37;;;;;;;2.23;1.70;;;29.70;1.00;;;;;;5076228;28;20432;-79
2022/07/15 13:16:05;;;;;;;3.50;2.10;;;29.80;1.00;;;;;;5076170;28;20408;-79
2022/07/15 13:18:36;;;;;;;2.23;1.83;;;29.90;1.00;;;;;;5076080;28;20456;-78
2022/07/15 13:21:05;;;;;;;2.53;1.80;;;29.90;1.00;;;;;;5061400;28;20447;-79
2022/07/15 13:23:34;;;;;;;2.37;2.17;;;29.50;1.00;;;;;;5074692;28;20416;-86
2022/07/15 13:26:10;;;;;;;4.30;2.07;;;29.30;1.00;;;;;;5060964;28;20781;-79
2022/07/15 13:31:58;;;;;;;3.03;1.90;;;28.90;1.00;;;;;;5068980;28;20406;-78
2022/07/15 13:34:24;;;;;;;4.10;1.73;;;28.70;1.00;;;;;;5062952;28;20418;-79
2022/07/15 13:36:50;;;;;;;6.17;2.20;;;28.80;1.00;;;;;;5064047;28;20478;-75
2022/07/15 13:39:15;;;;;;;5.43;1.97;;;28.80;1.00;;;;;;5076547;28;20262;-75
2022/07/15 13:41:58;;;;;;;1.90;1.70;;;28.60;1.00;;;;;;5075816;28;20169;-80
2022/07/15 13:51:23;;;;;;;1.60;1.50;;;28.90;1.00;;;;;;5068335;28;20428;-77
2022/07/15 13:54:04;;;;;;;4.27;1.93;;;29.10;1.00;;;;;;5062981;28;20406;-78
2022/07/15 13:56:30;;;;;;;10.80;1.60;;;29.30;1.00;;;;;;5069255;28;20448;-78
2022/07/15 13:58:58;;;;;;;4.10;1.97;;;29.20;1.00;;;;;;5065653;28;20455;-77
2022/07/15 14:01:31;;;;;;;4.10;1.40;;;29.20;1.00;;;;;;5062439;28;20628;-76
2022/07/15 14:03:58;;;;;;;3.87;1.90;;;29.30;1.00;;;;;;5075652;28;20820;-77
2022/07/15 14:06:30;;;;;;;2.90;1.40;;;29.50;1.00;;;;;;5060989;28;20411;-77
2022/07/15 14:08:58;;;;;;;1.93;1.40;;;29.70;1.00;;;;;;5063276;28;20496;-77
2022/07/15 14:11:28;;;;;;;2.23;1.70;;;29.80;1.00;;;;;;5071000;28;20962;-79
2022/07/15 14:13:54;;;;;;;4.93;1.67;;;29.70;1.00;;;;;;5071530;28;20426;-78
2022/07/15 14:16:52;;;;;;;3.90;1.83;;;29.60;1.00;;;;;;5069479;28;20467;-79
2022/07/15 14:22:53;;;;;;;6.33;1.80;;;28.80;1.00;;;;;;5063642;28;20932;-80
2022/07/15 14:25:19;;;;;;;2.47;1.70;;;28.80;1.00;;;;;;5062161;28;20403;-78
2022/07/15 14:28:10;;;;;;;1.33;1.20;;;28.90;1.00;;;;;;5071135;28;20518;-81
2022/07/15 14:30:52;;;;;;;5.70;1.70;;;29.00;1.00;;;;;;5061746;28;20274;-84
2022/07/15 14:33:52;;;;;;;4.10;1.60;;;29.10;1.00;;;;;;5068720;28;20948;-81
2022/07/15 14:36:18;;;;;;;4.00;1.70;;;29.10;1.00;;;;;;5054735;28;20423;-81
2022/07/15 14:42:11;;;;;;;2.83;1.37;;;28.90;1.00;;;;;;5074574;28;20196;-78
2022/07/15 14:44:37;;;;;;;1.53;1.40;;;28.60;1.00;;;;;;5074605;28;20489;-79
2022/07/15 14:47:22;;;;;;;5.60;1.40;;;28.70;1.00;;;;;;5074479;28;20839;-76